sensor_id;sensor_type;location;lat;lon;timestamp;pressure;altitude;pressure_sealevel;temperature;humidity
33554;BME280;19885;42.208;24.952;2024-01-15T00:00:17;99514.00;;;-2.00;100.00
33554;BME280;19885;42.208;24.952;2024-01-15T00:02:43;99519.13;;;-1.83;100.00
33554;BME280;19885;42.208;24.952;2024-01-15T00:05:08;99522.13;;;-1.91;100.00
33554;BME280;19885;42.208;24.952;2024-01-15T00:07:33;99517.34;;;-2.51;100.00
33554;BME280;19885;42.208;24.952;2024-01-15T00:09:59;99514.53;;;-2.40;100.00
33554;BME280;19885;42.208;24.952;2024-01-15T00:12:24;99517.03;;;-2.41;100.00
33554;BME280;19885;42.208;24.952;2024-01-15T00:14:49;99514.78;;;-2.51;100.00
33554;BME280;19885;42.208;24.952;2024-01-15T00:17:15;99519.88;;;-2.51;100.00
33554;BME280;19885;42.208;24.952;2024-01-15T00:19:40;99512.88;;;-2.39;100.00
33554;BME280;19885;42.208;24.952;2024-01-15T00:22:08;99509.66;;;-2.19;100.00
33554;BME280;19885;42.208;24.952;2024-01-15T00:24:33;99513.06;;;-2.02;100.00
33554;BME280;19885;42.208;24.952;2024-01-15T00:27:01;99523.00;;;-1.91;100.00
33554;BME280;19885;42.208;24.952;2024-01-15T00:29:27;99526.19;;;-1.95;100.00
33554;BME280;19885;42.208;24.952;2024-01-15T00:31:52;99514.03;;;-2.17;100.00
33554;BME280;19885;42.208;24.952;2024-01-15T00:34:17;99514.41;;;-2.09;100.00
33554;BME280;19885;42.208;24.952;2024-01-15T00:36:43;99519.91;;;-2.01;100.00
33554;BME280;19885;42.208;24.952;2024-01-15T00:39:08;99517.31;;;-2.19;100.00
33554;BME280;19885;42.208;24.952;2024-01-15T00:41:35;99512.94;;;-2.70;100.00
33554;BME280;19885;42.208;24.952;2024-01-15T00:44:03;99510.91;;;-3.08;100.00
33554;BME280;19885;42.208;24.952;2024-01-15T00:46:32;99507.94;;;-2.84;100.00
33554;BME280;19885;42.208;24.952;2024-01-15T00:48:58;99506.22;;;-3.16;100.00
33554;BME280;19885;42.208;24.952;2024-01-15T00:51:23;99498.53;;;-2.69;100.00
33554;BME280;19885;42.208;24.952;2024-01-15T00:53:51;99500.06;;;-2.57;100.00
33554;BME280;19885;42.208;24.952;2024-01-15T00:56:16;99505.66;;;-3.11;100.00
33554;BME280;19885;42.208;24.952;2024-01-15T00:58:41;99503.63;;;-2.69;100.00
33554;BME280;19885;42.208;24.952;2024-01-15T01:01:10;99509.44;;;-2.56;100.00
33554;BME280;19885;42.208;24.952;2024-01-15T01:03:35;99510.41;;;-2.54;100.00
33554;BME280;19885;42.208;24.952;2024-01-15T01:06:00;99512.72;;;-2.58;100.00
33554;BME280;19885;42.208;24.952;2024-01-15T01:08:28;99506.47;;;-2.63;100.00
33554;BME280;19885;42.208;24.952;2024-01-15T01:10:55;99509.13;;;-2.46;100.00
33554;BME280;19885;42.208;24.952;2024-01-15T01:13:20;99509.50;;;-2.38;100.00
33554;BME280;19885;42.208;24.952;2024-01-15T01:15:46;99507.13;;;-2.35;100.00
33554;BME280;19885;42.208;24.952;2024-01-15T01:18:11;99502.03;;;-2.83;100.00
33554;BME280;19885;42.208;24.952;2024-01-15T01:20:36;99513.53;;;-2.59;100.00
33554;BME280;19885;42.208;24.952;2024-01-15T01:23:02;99505.53;;;-2.98;100.00
33554;BME280;19885;42.208;24.952;2024-01-15T01:25:28;99502.38;;;-2.61;100.00
33554;BME280;19885;42.208;24.952;2024-01-15T01:27:53;99499.81;;;-2.61;100.00
33554;BME280;19885;42.208;24.952;2024-01-15T01:30:19;99495.97;;;-2.53;100.00
33554;BME280;19885;42.208;24.952;2024-01-15T01:32:44;99490.22;;;-2.33;100.00
33554;BME280;19885;42.208;24.952;2024-01-15T01:35:09;99484.41;;;-2.31;100.00
33554;BME280;19885;42.208;24.952;2024-01-15T01:37:35;99486.97;;;-2.79;100.00
33554;BME280;19885;42.208;24.952;2024-01-15T01:40:02;99489.03;;;-2.72;100.00
33554;BME280;19885;42.208;24.952;2024-01-15T01:42:28;99493.25;;;-2.40;100.00
33554;BME280;19885;42.208;24.952;2024-01-15T01:44:53;99490.22;;;-2.65;100.00
33554;BME280;19885;42.208;24.952;2024-01-15T01:47:18;99488.34;;;-2.53;100.00
33554;BME280;19885;42.208;24.952;2024-01-15T01:49:45;99481.63;;;-2.67;100.00
33554;BME280;19885;42.208;24.952;2024-01-15T01:52:10;99476.06;;;-2.76;100.00
33554;BME280;19885;42.208;24.952;2024-01-15T01:54:38;99466.34;;;-2.83;100.00
33554;BME280;19885;42.208;24.952;2024-01-15T01:57:07;99473.50;;;-2.76;100.00
33554;BME280;19885;42.208;24.952;2024-01-15T01:59:36;99466.63;;;-2.45;100.00
33554;BME280;19885;42.208;24.952;2024-01-15T02:02:06;99467.44;;;-2.46;100.00
33554;BME280;19885;42.208;24.952;2024-01-15T02:04:31;99469.66;;;-2.36;100.00
33554;BME280;19885;42.208;24.952;2024-01-15T02:06:58;99464.91;;;-2.62;100.00
33554;BME280;19885;42.208;24.952;2024-01-15T02:09:24;99471.78;;;-2.61;100.00
33554;BME280;19885;42.208;24.952;2024-01-15T02:11:52;99464.59;;;-2.52;100.00
33554;BME280;19885;42.208;24.952;2024-01-15T02:14:18;99462.06;;;-2.52;100.00
33554;BME280;19885;42.208;24.952;2024-01-15T02:16:46;99459.50;;;-2.52;100.00
33554;BME280;19885;42.208;24.952;2024-01-15T02:19:18;99459.16;;;-2.42;100.00
33554;BME280;19885;42.208;24.952;2024-01-15T02:21:44;99457.41;;;-2.43;100.00
33554;BME280;19885;42.208;24.952;2024-01-15T02:24:09;99453.25;;;-2.41;100.00
33554;BME280;19885;42.208;24.952;2024-01-15T02:26:34;99446.22;;;-2.45;100.00
33554;BME280;19885;42.208;24.952;2024-01-15T02:29:04;99455.66;;;-2.44;100.00
33554;BME280;19885;42.208;24.952;2024-01-15T02:31:29;99444.66;;;-2.43;100.00
33554;BME280;19885;42.208;24.952;2024-01-15T02:33:58;99452.34;;;-2.75;100.00
33554;BME280;19885;42.208;24.952;2024-01-15T02:36:25;99456.94;;;-2.52;100.00
33554;BME280;19885;42.208;24.952;2024-01-15T02:38:51;99457.25;;;-2.46;100.00
33554;BME280;19885;42.208;24.952;2024-01-15T02:41:16;99453.34;;;-2.56;100.00
33554;BME280;19885;42.208;24.952;2024-01-15T02:43:41;99468.88;;;-2.51;100.00
33554;BME280;19885;42.208;24.952;2024-01-15T02:46:07;99448.47;;;-2.51;100.00
33554;BME280;19885;42.208;24.952;2024-01-15T02:48:32;99449.59;;;-2.46;100.00
33554;BME280;19885;42.208;24.952;2024-01-15T02:51:00;99455.81;;;-2.41;100.00
33554;BME280;19885;42.208;24.952;2024-01-15T02:53:26;99450.72;;;-2.41;100.00
33554;BME280;19885;42.208;24.952;2024-01-15T02:55:51;99444.66;;;-2.43;100.00
33554;BME280;19885;42.208;24.952;2024-01-15T02:58:16;99455.47;;;-2.47;100.00
33554;BME280;19885;42.208;24.952;2024-01-15T03:00:42;99456.44;;;-2.45;100.00
33554;BME280;19885;42.208;24.952;2024-01-15T03:03:07;99454.16;;;-2.57;100.00
33554;BME280;19885;42.208;24.952;2024-01-15T03:05:36;99444.47;;;-2.80;100.00
33554;BME280;19885;42.208;24.952;2024-01-15T03:08:01;99446.44;;;-2.91;100.00
33554;BME280;19885;42.208;24.952;2024-01-15T03:10:27;99448.25;;;-2.72;100.00
33554;BME280;19885;42.208;24.952;2024-01-15T03:12:52;99434.97;;;-2.66;100.00
33554;BME280;19885;42.208;24.952;2024-01-15T03:15:17;99438.78;;;-2.58;100.00
33554;BME280;19885;42.208;24.952;2024-01-15T03:17:43;99440.19;;;-2.63;100.00
33554;BME280;19885;42.208;24.952;2024-01-15T03:20:09;99432.88;;;-2.57;100.00
33554;BME280;19885;42.208;24.952;2024-01-15T03:22:34;99436.31;;;-2.57;100.00
33554;BME280;19885;42.208;24.952;2024-01-15T03:25:00;99429.63;;;-2.55;100.00
33554;BME280;19885;42.208;24.952;2024-01-15T03:27:25;99448.44;;;-2.69;100.00
33554;BME280;19885;42.208;24.952;2024-01-15T03:29:51;99443.16;;;-2.72;100.00
33554;BME280;19885;42.208;24.952;2024-01-15T03:32:17;99447.38;;;-2.72;100.00
33554;BME280;19885;42.208;24.952;2024-01-15T03:34:42;99444.34;;;-2.65;100.00
33554;BME280;19885;42.208;24.952;2024-01-15T03:37:08;99447.56;;;-2.69;100.00
33554;BME280;19885;42.208;24.952;2024-01-15T03:39:34;99444.22;;;-2.68;100.00
33554;BME280;19885;42.208;24.952;2024-01-15T03:41:59;99443.28;;;-2.70;100.00
33554;BME280;19885;42.208;24.952;2024-01-15T03:44:25;99442.53;;;-2.68;100.00
33554;BME280;19885;42.208;24.952;2024-01-15T03:46:51;99447.06;;;-2.62;100.00
33554;BME280;19885;42.208;24.952;2024-01-15T03:49:17;99442.63;;;-2.66;100.00
33554;BME280;19885;42.208;24.952;2024-01-15T03:51:42;99438.63;;;-2.61;100.00
33554;BME280;19885;42.208;24.952;2024-01-15T03:54:08;99443.28;;;-2.70;100.00
33554;BME280;19885;42.208;24.952;2024-01-15T03:56:34;99440.22;;;-3.12;100.00
33554;BME280;19885;42.208;24.952;2024-01-15T03:59:05;99441.50;;;-2.88;100.00
33554;BME280;19885;42.208;24.952;2024-01-15T04:01:33;99445.22;;;-2.97;100.00
33554;BME280;19885;42.208;24.952;2024-01-15T04:03:59;99448.66;;;-3.13;100.00
33554;BME280;19885;42.208;24.952;2024-01-15T04:06:25;99453.47;;;-3.33;100.00
33554;BME280;19885;42.208;24.952;2024-01-15T04:08:51;99445.16;;;-2.99;100.00
33554;BME280;19885;42.208;24.952;2024-01-15T04:11:17;99450.19;;;-3.00;100.00
33554;BME280;19885;42.208;24.952;2024-01-15T04:13:42;99455.94;;;-3.35;100.00
33554;BME280;19885;42.208;24.952;2024-01-15T04:16:07;99449.19;;;-3.65;100.00
33554;BME280;19885;42.208;24.952;2024-01-15T04:18:33;99440.28;;;-3.26;100.00
33554;BME280;19885;42.208;24.952;2024-01-15T04:20:58;99438.88;;;-3.05;100.00
33554;BME280;19885;42.208;24.952;2024-01-15T04:23:23;99432.22;;;-3.34;100.00
33554;BME280;19885;42.208;24.952;2024-01-15T04:25:49;99441.81;;;-3.14;100.00
33554;BME280;19885;42.208;24.952;2024-01-15T04:28:14;99434.91;;;-3.00;100.00
33554;BME280;19885;42.208;24.952;2024-01-15T04:30:40;99436.81;;;-2.96;100.00
33554;BME280;19885;42.208;24.952;2024-01-15T04:33:05;99422.41;;;-2.96;100.00
33554;BME280;19885;42.208;24.952;2024-01-15T04:35:30;99420.47;;;-2.83;100.00
33554;BME280;19885;42.208;24.952;2024-01-15T04:37:56;99428.13;;;-2.83;100.00
33554;BME280;19885;42.208;24.952;2024-01-15T04:40:21;99423.97;;;-2.81;100.00
33554;BME280;19885;42.208;24.952;2024-01-15T04:42:47;99421.53;;;-2.80;100.00
33554;BME280;19885;42.208;24.952;2024-01-15T04:45:12;99422.47;;;-2.78;100.00
33554;BME280;19885;42.208;24.952;2024-01-15T04:47:37;99425.19;;;-2.75;100.00
33554;BME280;19885;42.208;24.952;2024-01-15T04:50:03;99420.09;;;-2.75;100.00
33554;BME280;19885;42.208;24.952;2024-01-15T04:52:29;99416.78;;;-2.72;100.00
33554;BME280;19885;42.208;24.952;2024-01-15T04:54:54;99425.19;;;-2.75;100.00
33554;BME280;19885;42.208;24.952;2024-01-15T04:57:19;99415.78;;;-2.76;100.00
33554;BME280;19885;42.208;24.952;2024-01-15T04:59:45;99428.44;;;-2.77;100.00
33554;BME280;19885;42.208;24.952;2024-01-15T05:02:10;99418.97;;;-2.80;100.00
33554;BME280;19885;42.208;24.952;2024-01-15T05:04:35;99416.31;;;-2.81;100.00
33554;BME280;19885;42.208;24.952;2024-01-15T05:07:01;99402.63;;;-2.83;100.00
33554;BME280;19885;42.208;24.952;2024-01-15T05:09:26;99411.22;;;-2.81;100.00
33554;BME280;19885;42.208;24.952;2024-01-15T05:11:54;99410.44;;;-2.80;100.00
33554;BME280;19885;42.208;24.952;2024-01-15T05:14:19;99412.34;;;-2.93;100.00
33554;BME280;19885;42.208;24.952;2024-01-15T05:16:51;99409.03;;;-2.92;100.00
33554;BME280;19885;42.208;24.952;2024-01-15T05:19:16;99396.13;;;-2.95;100.00
33554;BME280;19885;42.208;24.952;2024-01-15T05:21:42;99404.56;;;-2.96;100.00
33554;BME280;19885;42.208;24.952;2024-01-15T05:24:08;99406.66;;;-3.05;100.00
33554;BME280;19885;42.208;24.952;2024-01-15T05:26:33;99409.00;;;-3.40;100.00
33554;BME280;19885;42.208;24.952;2024-01-15T05:29:00;99400.00;;;-3.17;100.00
33554;BME280;19885;42.208;24.952;2024-01-15T05:31:26;99390.47;;;-3.84;100.00
33554;BME280;19885;42.208;24.952;2024-01-15T05:33:51;99394.09;;;-3.95;100.00
33554;BME280;19885;42.208;24.952;2024-01-15T05:36:19;99386.97;;;-4.15;100.00
33554;BME280;19885;42.208;24.952;2024-01-15T05:38:45;99376.28;;;-3.79;100.00
33554;BME280;19885;42.208;24.952;2024-01-15T05:41:14;99379.66;;;-3.80;100.00
33554;BME280;19885;42.208;24.952;2024-01-15T05:43:40;99373.22;;;-3.74;100.00
33554;BME280;19885;42.208;24.952;2024-01-15T05:46:05;99376.56;;;-3.58;100.00
33554;BME280;19885;42.208;24.952;2024-01-15T05:48:32;99377.47;;;-3.42;100.00
33554;BME280;19885;42.208;24.952;2024-01-15T05:51:01;99371.25;;;-3.63;100.00
33554;BME280;19885;42.208;24.952;2024-01-15T05:53:27;99353.84;;;-3.55;100.00
33554;BME280;19885;42.208;24.952;2024-01-15T05:55:52;99355.59;;;-3.71;100.00
33554;BME280;19885;42.208;24.952;2024-01-15T05:58:19;99347.25;;;-3.36;100.00
33554;BME280;19885;42.208;24.952;2024-01-15T06:00:46;99343.75;;;-3.22;100.00
33554;BME280;19885;42.208;24.952;2024-01-15T06:03:13;99358.72;;;-3.12;100.00
33554;BME280;19885;42.208;24.952;2024-01-15T06:05:38;99367.78;;;-3.01;100.00
33554;BME280;19885;42.208;24.952;2024-01-15T06:08:06;99382.44;;;-3.13;100.00
33554;BME280;19885;42.208;24.952;2024-01-15T06:10:31;99399.53;;;-4.18;100.00
33554;BME280;19885;42.208;24.952;2024-01-15T06:12:57;99401.56;;;-4.27;100.00
33554;BME280;19885;42.208;24.952;2024-01-15T06:15:24;99405.09;;;-3.80;100.00
33554;BME280;19885;42.208;24.952;2024-01-15T06:17:50;99394.88;;;-3.49;100.00
33554;BME280;19885;42.208;24.952;2024-01-15T06:20:21;99382.41;;;-3.29;100.00
33554;BME280;19885;42.208;24.952;2024-01-15T06:22:46;99386.09;;;-3.08;100.00
33554;BME280;19885;42.208;24.952;2024-01-15T06:25:11;99381.00;;;-2.92;100.00
33554;BME280;19885;42.208;24.952;2024-01-15T06:27:36;99364.34;;;-2.85;100.00
33554;BME280;19885;42.208;24.952;2024-01-15T06:30:02;99365.69;;;-2.75;100.00
33554;BME280;19885;42.208;24.952;2024-01-15T06:32:27;99368.53;;;-2.69;100.00
33554;BME280;19885;42.208;24.952;2024-01-15T06:34:53;99366.28;;;-2.63;100.00
33554;BME280;19885;42.208;24.952;2024-01-15T06:37:18;99379.53;;;-2.70;100.00
33554;BME280;19885;42.208;24.952;2024-01-15T06:39:45;99396.81;;;-2.81;100.00
33554;BME280;19885;42.208;24.952;2024-01-15T06:42:10;99400.22;;;-2.64;100.00
33554;BME280;19885;42.208;24.952;2024-01-15T06:44:36;99409.28;;;-2.53;100.00
33554;BME280;19885;42.208;24.952;2024-01-15T06:47:01;99398.09;;;-2.39;100.00
33554;BME280;19885;42.208;24.952;2024-01-15T06:49:30;99398.69;;;-2.27;100.00
33554;BME280;19885;42.208;24.952;2024-01-15T06:51:55;99400.56;;;-2.07;100.00
33554;BME280;19885;42.208;24.952;2024-01-15T06:54:21;99391.06;;;-1.92;100.00
33554;BME280;19885;42.208;24.952;2024-01-15T06:56:46;99392.75;;;-2.10;100.00
33554;BME280;19885;42.208;24.952;2024-01-15T06:59:11;99397.75;;;-2.29;100.00
33554;BME280;19885;42.208;24.952;2024-01-15T07:01:37;99406.22;;;-2.30;100.00
33554;BME280;19885;42.208;24.952;2024-01-15T07:04:02;99403.28;;;-2.20;100.00
33554;BME280;19885;42.208;24.952;2024-01-15T07:06:28;99391.84;;;-2.28;100.00
33554;BME280;19885;42.208;24.952;2024-01-15T07:08:53;99388.81;;;-2.21;100.00
33554;BME280;19885;42.208;24.952;2024-01-15T07:11:18;99378.75;;;-2.00;100.00
33554;BME280;19885;42.208;24.952;2024-01-15T07:13:44;99382.69;;;-1.89;100.00
33554;BME280;19885;42.208;24.952;2024-01-15T07:16:09;99379.91;;;-1.76;100.00
33554;BME280;19885;42.208;24.952;2024-01-15T07:18:34;99384.97;;;-1.59;100.00
33554;BME280;19885;42.208;24.952;2024-01-15T07:21:00;99381.13;;;-1.31;100.00
33554;BME280;19885;42.208;24.952;2024-01-15T07:23:28;99380.78;;;-1.02;100.00
33554;BME280;19885;42.208;24.952;2024-01-15T07:25:53;99386.47;;;-0.89;100.00
33554;BME280;19885;42.208;24.952;2024-01-15T07:28:19;99391.22;;;-0.77;100.00
33554;BME280;19885;42.208;24.952;2024-01-15T07:30:44;99394.66;;;-0.77;100.00
33554;BME280;19885;42.208;24.952;2024-01-15T07:33:10;99381.47;;;-0.86;100.00
33554;BME280;19885;42.208;24.952;2024-01-15T07:35:36;99389.00;;;-0.69;100.00
33554;BME280;19885;42.208;24.952;2024-01-15T07:38:01;99385.16;;;-0.60;100.00
33554;BME280;19885;42.208;24.952;2024-01-15T07:40:26;99378.78;;;-0.30;100.00
33554;BME280;19885;42.208;24.952;2024-01-15T07:42:51;99384.06;;;-0.25;100.00
33554;BME280;19885;42.208;24.952;2024-01-15T07:45:17;99389.13;;;-0.06;100.00
33554;BME280;19885;42.208;24.952;2024-01-15T07:47:43;99380.00;;;0.00;100.00
33554;BME280;19885;42.208;24.952;2024-01-15T07:50:12;99378.72;;;0.12;100.00
33554;BME280;19885;42.208;24.952;2024-01-15T07:52:39;99379.53;;;0.53;100.00
33554;BME280;19885;42.208;24.952;2024-01-15T07:55:04;99382.44;;;1.08;100.00
33554;BME280;19885;42.208;24.952;2024-01-15T07:57:33;99392.88;;;1.62;100.00
33554;BME280;19885;42.208;24.952;2024-01-15T07:59:58;99392.94;;;2.15;99.44
33554;BME280;19885;42.208;24.952;2024-01-15T08:02:23;99384.31;;;2.40;94.34
33554;BME280;19885;42.208;24.952;2024-01-15T08:04:49;99390.75;;;2.54;93.36
33554;BME280;19885;42.208;24.952;2024-01-15T08:07:14;99407.19;;;2.32;92.87
33554;BME280;19885;42.208;24.952;2024-01-15T08:09:42;99402.81;;;2.03;95.12
33554;BME280;19885;42.208;24.952;2024-01-15T08:12:08;99403.06;;;1.84;97.75
33554;BME280;19885;42.208;24.952;2024-01-15T08:14:35;99412.56;;;1.61;96.41
33554;BME280;19885;42.208;24.952;2024-01-15T08:17:00;99415.94;;;1.36;98.83
33554;BME280;19885;42.208;24.952;2024-01-15T08:19:26;99416.34;;;1.47;99.32
33554;BME280;19885;42.208;24.952;2024-01-15T08:21:52;99420.34;;;0.49;100.00
33554;BME280;19885;42.208;24.952;2024-01-15T08:24:18;99417.97;;;0.53;100.00
33554;BME280;19885;42.208;24.952;2024-01-15T08:26:43;99433.16;;;0.93;100.00
33554;BME280;19885;42.208;24.952;2024-01-15T08:29:09;99433.38;;;0.33;100.00
33554;BME280;19885;42.208;24.952;2024-01-15T08:31:36;99435.81;;;0.30;100.00
33554;BME280;19885;42.208;24.952;2024-01-15T08:34:02;99428.75;;;0.45;100.00
33554;BME280;19885;42.208;24.952;2024-01-15T08:36:27;99426.72;;;-0.05;100.00
33554;BME280;19885;42.208;24.952;2024-01-15T08:38:54;99415.81;;;0.21;100.00
33554;BME280;19885;42.208;24.952;2024-01-15T08:41:20;99414.78;;;0.59;100.00
33554;BME280;19885;42.208;24.952;2024-01-15T08:43:45;99407.88;;;0.58;100.00
33554;BME280;19885;42.208;24.952;2024-01-15T08:46:14;99415.03;;;0.89;100.00
33554;BME280;19885;42.208;24.952;2024-01-15T08:48:39;99405.78;;;0.48;100.00
33554;BME280;19885;42.208;24.952;2024-01-15T08:51:05;99401.13;;;0.38;100.00
33554;BME280;19885;42.208;24.952;2024-01-15T08:53:30;99402.91;;;0.61;100.00
33554;BME280;19885;42.208;24.952;2024-01-15T08:55:55;99399.56;;;0.21;100.00
33554;BME280;19885;42.208;24.952;2024-01-15T08:58:21;99392.38;;;0.55;100.00
33554;BME280;19885;42.208;24.952;2024-01-15T09:00:46;99386.22;;;0.72;100.00
33554;BME280;19885;42.208;24.952;2024-01-15T09:03:11;99377.94;;;0.35;100.00
33554;BME280;19885;42.208;24.952;2024-01-15T09:05:37;99384.47;;;0.71;100.00
33554;BME280;19885;42.208;24.952;2024-01-15T09:08:02;99372.53;;;0.71;100.00
33554;BME280;19885;42.208;24.952;2024-01-15T09:10:28;99364.22;;;1.24;100.00
33554;BME280;19885;42.208;24.952;2024-01-15T09:12:53;99366.00;;;1.03;100.00
33554;BME280;19885;42.208;24.952;2024-01-15T09:15:18;99346.75;;;1.39;100.00
33554;BME280;19885;42.208;24.952;2024-01-15T09:17:45;99333.22;;;1.43;100.00
33554;BME280;19885;42.208;24.952;2024-01-15T09:20:11;99330.25;;;1.08;100.00
33554;BME280;19885;42.208;24.952;2024-01-15T09:22:39;99333.50;;;1.53;100.00
33554;BME280;19885;42.208;24.952;2024-01-15T09:25:08;99325.19;;;1.85;100.00
33554;BME280;19885;42.208;24.952;2024-01-15T09:27:35;99316.50;;;2.08;100.00
33554;BME280;19885;42.208;24.952;2024-01-15T09:30:00;99314.41;;;1.70;100.00
33554;BME280;19885;42.208;24.952;2024-01-15T09:32:25;99306.53;;;1.13;100.00
33554;BME280;19885;42.208;24.952;2024-01-15T09:34:50;99301.13;;;1.06;100.00
33554;BME280;19885;42.208;24.952;2024-01-15T09:37:19;99318.53;;;1.65;100.00
33554;BME280;19885;42.208;24.952;2024-01-15T09:39:44;99324.88;;;1.76;100.00
33554;BME280;19885;42.208;24.952;2024-01-15T09:42:09;99322.44;;;2.07;100.00
33554;BME280;19885;42.208;24.952;2024-01-15T09:44:36;99315.47;;;2.03;100.00
33554;BME280;19885;42.208;24.952;2024-01-15T09:47:01;99316.03;;;2.21;100.00
33554;BME280;19885;42.208;24.952;2024-01-15T09:49:27;99301.94;;;2.37;100.00
33554;BME280;19885;42.208;24.952;2024-01-15T09:51:55;99303.38;;;2.55;100.00
33554;BME280;19885;42.208;24.952;2024-01-15T09:54:22;99298.31;;;2.58;100.00
33554;BME280;19885;42.208;24.952;2024-01-15T09:56:48;99288.09;;;2.61;100.00
33554;BME280;19885;42.208;24.952;2024-01-15T09:59:17;99284.59;;;2.89;100.00
33554;BME280;19885;42.208;24.952;2024-01-15T10:01:43;99284.31;;;3.10;100.00
33554;BME280;19885;42.208;24.952;2024-01-15T10:04:09;99279.94;;;3.07;100.00
33554;BME280;19885;42.208;24.952;2024-01-15T10:06:35;99271.06;;;2.95;100.00
33554;BME280;19885;42.208;24.952;2024-01-15T10:09:00;99262.56;;;2.99;100.00
33554;BME280;19885;42.208;24.952;2024-01-15T10:11:26;99263.72;;;3.10;100.00
33554;BME280;19885;42.208;24.952;2024-01-15T10:13:51;99272.72;;;2.93;100.00
33554;BME280;19885;42.208;24.952;2024-01-15T10:16:21;99268.78;;;3.07;100.00
33554;BME280;19885;42.208;24.952;2024-01-15T10:18:47;99246.22;;;2.97;100.00
33554;BME280;19885;42.208;24.952;2024-01-15T10:21:12;99245.25;;;3.24;100.00
33554;BME280;19885;42.208;24.952;2024-01-15T10:23:39;99242.69;;;3.58;100.00
33554;BME280;19885;42.208;24.952;2024-01-15T10:26:05;99240.47;;;3.75;100.00
33554;BME280;19885;42.208;24.952;2024-01-15T10:28:30;99236.00;;;3.68;100.00
33554;BME280;19885;42.208;24.952;2024-01-15T10:30:57;99224.31;;;3.82;100.00
33554;BME280;19885;42.208;24.952;2024-01-15T10:33:25;99220.94;;;3.83;100.00
33554;BME280;19885;42.208;24.952;2024-01-15T10:35:53;99219.38;;;3.54;100.00
33554;BME280;19885;42.208;24.952;2024-01-15T10:38:21;99224.53;;;3.91;100.00
33554;BME280;19885;42.208;24.952;2024-01-15T10:40:56;99203.50;;;4.10;100.00
33554;BME280;19885;42.208;24.952;2024-01-15T10:43:21;99189.69;;;4.08;98.88
33554;BME280;19885;42.208;24.952;2024-01-15T10:45:48;99173.00;;;3.91;97.80
33554;BME280;19885;42.208;24.952;2024-01-15T10:48:13;99160.47;;;4.08;97.17
33554;BME280;19885;42.208;24.952;2024-01-15T10:50:39;99162.78;;;4.36;96.50
33554;BME280;19885;42.208;24.952;2024-01-15T10:53:05;99158.88;;;4.58;97.22
33554;BME280;19885;42.208;24.952;2024-01-15T10:55:31;99160.94;;;4.75;96.29
33554;BME280;19885;42.208;24.952;2024-01-15T10:57:59;99159.16;;;4.73;94.32
33554;BME280;19885;42.208;24.952;2024-01-15T11:00:26;99157.28;;;4.64;94.40
33554;BME280;19885;42.208;24.952;2024-01-15T11:02:51;99163.88;;;4.49;95.29
33554;BME280;19885;42.208;24.952;2024-01-15T11:05:20;99166.81;;;4.23;97.40
33554;BME280;19885;42.208;24.952;2024-01-15T11:07:47;99162.00;;;4.42;97.22
33554;BME280;19885;42.208;24.952;2024-01-15T11:12:57;99158.78;;;4.52;96.17
33554;BME280;19885;42.208;24.952;2024-01-15T11:15:22;99148.66;;;4.64;96.56
33554;BME280;19885;42.208;24.952;2024-01-15T11:18:01;99148.09;;;4.78;97.66
33554;BME280;19885;42.208;24.952;2024-01-15T11:20:28;99158.91;;;5.07;95.64
33554;BME280;19885;42.208;24.952;2024-01-15T11:22:56;99153.72;;;5.05;96.04
33554;BME280;19885;42.208;24.952;2024-01-15T11:25:22;99150.63;;;5.25;93.91
33554;BME280;19885;42.208;24.952;2024-01-15T11:27:49;99142.66;;;5.13;93.13
33554;BME280;19885;42.208;24.952;2024-01-15T11:30:17;99139.97;;;5.60;92.31
33554;BME280;19885;42.208;24.952;2024-01-15T11:32:45;99120.91;;;4.98;91.06
33554;BME280;19885;42.208;24.952;2024-01-15T11:35:12;99107.06;;;5.47;93.94
33554;BME280;19885;42.208;24.952;2024-01-15T11:40:19;99112.09;;;5.41;89.95
33554;BME280;19885;42.208;24.952;2024-01-15T11:42:47;99112.78;;;5.85;90.17
33554;BME280;19885;42.208;24.952;2024-01-15T11:45:19;99109.00;;;6.29;90.09
33554;BME280;19885;42.208;24.952;2024-01-15T11:50:25;99098.72;;;6.35;88.62
33554;BME280;19885;42.208;24.952;2024-01-15T11:52:56;99106.06;;;6.79;86.17
33554;BME280;19885;42.208;24.952;2024-01-15T11:55:28;99104.38;;;6.82;84.14
33554;BME280;19885;42.208;24.952;2024-01-15T11:57:55;99105.94;;;6.67;84.58
33554;BME280;19885;42.208;24.952;2024-01-15T12:00:22;99096.19;;;6.40;85.32
33554;BME280;19885;42.208;24.952;2024-01-15T12:02:48;99106.63;;;5.80;85.74
33554;BME280;19885;42.208;24.952;2024-01-15T12:05:17;99105.44;;;5.54;87.22
33554;BME280;19885;42.208;24.952;2024-01-15T12:07:43;99103.44;;;5.96;88.68
33554;BME280;19885;42.208;24.952;2024-01-15T12:10:14;99097.44;;;6.00;88.00
33554;BME280;19885;42.208;24.952;2024-01-15T12:15:09;99077.78;;;6.14;86.50
33554;BME280;19885;42.208;24.952;2024-01-15T12:17:34;99077.31;;;6.50;86.49
33554;BME280;19885;42.208;24.952;2024-01-15T12:20:00;99051.25;;;6.32;85.14
33554;BME280;19885;42.208;24.952;2024-01-15T12:22:26;99052.72;;;6.09;86.67
33554;BME280;19885;42.208;24.952;2024-01-15T12:24:53;99066.19;;;5.84;86.61
33554;BME280;19885;42.208;24.952;2024-01-15T12:27:19;99075.22;;;6.16;86.74
33554;BME280;19885;42.208;24.952;2024-01-15T12:29:48;99075.63;;;5.82;86.01
33554;BME280;19885;42.208;24.952;2024-01-15T12:32:17;99063.06;;;6.09;86.43
33554;BME280;19885;42.208;24.952;2024-01-15T12:34:43;99056.84;;;5.29;87.57
33554;BME280;19885;42.208;24.952;2024-01-15T12:37:09;99053.19;;;5.77;88.03
33554;BME280;19885;42.208;24.952;2024-01-15T12:39:34;99050.34;;;5.56;86.25
33554;BME280;19885;42.208;24.952;2024-01-15T12:42:00;99041.47;;;5.39;87.60
33554;BME280;19885;42.208;24.952;2024-01-15T12:44:31;99033.03;;;5.49;87.58
33554;BME280;19885;42.208;24.952;2024-01-15T12:46:57;99025.38;;;4.97;90.52
33554;BME280;19885;42.208;24.952;2024-01-15T12:49:24;99026.31;;;5.02;90.06